createdAt,value
2018-12-22T00:00:31.766Z,0.00
2018-12-22T00:01:31.754Z,0.00
2018-12-22T00:02:31.742Z,0.00
2018-12-22T00:03:31.753Z,0.00
2018-12-22T00:04:31.729Z,0.00
2018-12-22T00:05:31.707Z,0.00
2018-12-22T00:06:31.702Z,0.00
2018-12-22T00:07:31.688Z,0.00
2018-12-22T00:08:31.697Z,0.00
2018-12-22T00:09:31.665Z,0.00
2018-12-22T00:10:31.655Z,0.00
2018-12-22T00:11:31.646Z,0.00
2018-12-22T00:12:31.634Z,0.00
2018-12-22T00:13:31.649Z,0.00
2018-12-22T00:14:31.608Z,0.00
2018-12-22T00:15:31.601Z,0.00
2018-12-22T00:16:31.590Z,0.00
2018-12-22T00:17:31.576Z,0.00
2018-12-22T00:18:31.591Z,0.00
2018-12-22T00:19:31.578Z,0.00
2018-12-22T00:20:31.546Z,0.00
2018-12-22T00:21:31.545Z,0.00
2018-12-22T00:22:31.526Z,0.00
2018-12-22T00:23:31.534Z,0.00
2018-12-22T00:24:31.500Z,0.00
2018-12-22T00:25:31.487Z,0.00
2018-12-22T00:26:31.480Z,0.00
2018-12-22T00:27:31.469Z,0.00
2018-12-22T00:28:31.478Z,0.00
2018-12-22T00:29:31.446Z,0.00
2018-12-22T00:30:31.434Z,0.00
2018-12-22T00:31:31.425Z,0.00
2018-12-22T00:32:31.425Z,0.00
2018-12-22T00:33:31.427Z,0.00
2018-12-22T00:34:31.391Z,0.00
2018-12-22T00:35:31.381Z,0.00
2018-12-22T00:36:31.368Z,0.00
2018-12-22T00:37:31.358Z,0.00
2018-12-22T00:38:31.369Z,0.00
2018-12-22T00:39:31.335Z,0.00
2018-12-22T00:40:31.325Z,0.00
2018-12-22T00:41:31.321Z,0.00
2018-12-22T00:42:31.305Z,0.00
2018-12-22T00:43:31.314Z,0.00
2018-12-22T00:44:31.295Z,0.00
2018-12-22T00:45:31.272Z,0.00
2018-12-22T00:46:31.262Z,0.00
2018-12-22T00:47:31.247Z,0.00
2018-12-22T00:48:31.260Z,0.00
2018-12-22T00:49:31.228Z,0.00
2018-12-22T00:50:31.219Z,0.00
2018-12-22T00:51:31.206Z,0.00
2018-12-22T00:52:31.193Z,0.00
2018-12-22T00:53:31.210Z,0.00
2018-12-22T00:54:31.176Z,0.00
2018-12-22T00:55:31.160Z,0.00
2018-12-22T00:56:31.151Z,0.00
2018-12-22T00:57:31.146Z,0.00
2018-12-22T00:58:31.148Z,0.00
2018-12-22T00:59:31.120Z,0.00
2018-12-22T01:00:31.107Z,0.00
2018-12-22T01:01:31.094Z,0.00
2018-12-22T01:02:31.086Z,0.00
2018-12-22T01:03:31.097Z,0.00
2018-12-22T01:04:31.062Z,0.00
2018-12-22T01:05:31.049Z,0.00
2018-12-22T01:06:31.047Z,0.00
2018-12-22T01:07:31.028Z,0.00
2018-12-22T01:08:31.056Z,0.00
2018-12-22T01:09:31.007Z,0.00
2018-12-22T01:10:30.996Z,0.00
2018-12-22T01:11:30.991Z,0.00
2018-12-22T01:12:30.976Z,0.00
2018-12-22T01:13:30.967Z,0.00
2018-12-22T01:14:30.990Z,0.00
2018-12-22T01:15:30.946Z,0.00
2018-12-22T01:16:30.940Z,0.00
2018-12-22T01:17:30.921Z,0.00
2018-12-22T01:18:30.908Z,0.00
2018-12-22T01:19:30.922Z,0.00
2018-12-22T01:20:30.887Z,0.00
2018-12-22T01:21:30.874Z,0.00
2018-12-22T01:22:30.865Z,0.00
2018-12-22T01:23:30.854Z,0.00
2018-12-22T01:24:30.863Z,0.00
2018-12-22T01:25:30.831Z,0.00
2018-12-22T01:26:30.824Z,0.00
2018-12-22T01:27:30.817Z,0.00
2018-12-22T01:28:39.229Z,0.00
2018-12-22T01:29:30.811Z,0.00
2018-12-22T01:30:30.775Z,0.00
2018-12-22T01:31:30.769Z,0.00
2018-12-22T01:32:30.766Z,0.00
2018-12-22T01:33:30.745Z,0.00
2018-12-22T01:34:30.753Z,0.00
2018-12-22T01:35:30.723Z,0.00
2018-12-22T01:36:30.716Z,0.00
2018-12-22T01:37:30.698Z,0.00
2018-12-22T01:38:30.689Z,0.00
2018-12-22T01:39:30.698Z,0.00
2018-12-22T01:40:30.667Z,0.00
2018-12-22T01:41:30.662Z,0.00
2018-12-22T01:42:30.644Z,0.00
2018-12-22T01:43:30.632Z,0.00
2018-12-22T01:44:30.647Z,0.00
2018-12-22T01:45:30.611Z,0.00
2018-12-22T01:46:30.600Z,0.00
2018-12-22T01:47:30.591Z,0.00
2018-12-22T01:48:30.577Z,0.00
2018-12-22T01:49:30.650Z,0.00
2018-12-22T01:50:30.555Z,0.00
2018-12-22T01:51:30.544Z,0.00
2018-12-22T01:52:30.534Z,0.00
2018-12-22T01:53:30.523Z,0.00
2018-12-22T01:54:30.535Z,0.00
2018-12-22T01:55:30.508Z,0.00
2018-12-22T01:56:30.493Z,0.00
2018-12-22T01:57:30.480Z,0.00
2018-12-22T01:58:30.469Z,0.00
2018-12-22T01:59:30.481Z,0.00
2018-12-22T02:00:30.446Z,0.00
2018-12-22T02:01:30.438Z,0.00
2018-12-22T02:02:30.424Z,0.00
2018-12-22T02:03:30.415Z,0.00
2018-12-22T02:04:30.426Z,0.00
2018-12-22T02:05:30.394Z,0.00
2018-12-22T02:06:30.379Z,0.00
2018-12-22T02:07:30.370Z,0.00
2018-12-22T02:08:30.358Z,0.00
2018-12-22T02:09:30.381Z,0.00
2018-12-22T02:10:30.337Z,0.00
2018-12-22T02:11:30.334Z,0.00
2018-12-22T02:12:30.311Z,0.00
2018-12-22T02:13:30.306Z,0.00
2018-12-22T02:14:30.313Z,0.00
2018-12-22T02:15:30.279Z,0.00
2018-12-22T02:16:30.289Z,0.00
2018-12-22T02:17:30.256Z,0.00
2018-12-22T02:18:30.246Z,0.00
2018-12-22T02:19:30.281Z,0.00
2018-12-22T02:20:30.224Z,0.00
2018-12-22T02:21:30.229Z,0.00
2018-12-22T02:22:30.208Z,0.00
2018-12-22T02:23:30.193Z,0.00
2018-12-22T02:24:30.204Z,0.00
2018-12-22T02:25:30.168Z,0.00
2018-12-22T02:26:30.200Z,0.00
2018-12-22T02:27:30.146Z,0.00
2018-12-22T02:28:30.161Z,0.00
2018-12-22T02:29:30.152Z,0.00
2018-12-22T02:30:30.113Z,0.00
2018-12-22T02:31:30.114Z,0.00
2018-12-22T02:32:30.091Z,0.00
2018-12-22T02:33:30.081Z,0.00
2018-12-22T02:34:30.091Z,0.00
2018-12-22T02:35:30.063Z,0.00
2018-12-22T02:36:30.049Z,0.00
2018-12-22T02:37:30.036Z,0.00
2018-12-22T02:38:30.026Z,0.00
2018-12-22T02:39:30.037Z,0.00
2018-12-22T02:40:30.010Z,0.00
2018-12-22T02:41:29.993Z,0.00
2018-12-22T02:42:30.012Z,0.00
2018-12-22T02:43:29.979Z,0.00
2018-12-22T02:44:29.982Z,0.00
2018-12-22T02:45:29.952Z,0.00
2018-12-22T02:46:29.937Z,0.00
2018-12-22T02:47:38.694Z,0.00
2018-12-22T02:48:38.434Z,0.00
2018-12-22T02:49:29.930Z,0.00
2018-12-22T02:50:29.893Z,0.00
2018-12-22T02:51:29.885Z,0.00
2018-12-22T02:52:29.873Z,0.00
2018-12-22T02:53:29.865Z,0.00
2018-12-22T02:54:29.873Z,0.00
2018-12-22T02:55:29.838Z,0.00
2018-12-22T02:56:29.837Z,0.00
2018-12-22T02:57:29.822Z,0.00
2018-12-22T02:58:29.807Z,0.00
2018-12-22T02:59:29.820Z,0.00
2018-12-22T03:00:29.791Z,0.00
2018-12-22T03:01:38.096Z,0.00
2018-12-22T03:02:29.764Z,0.00
2018-12-22T03:03:29.750Z,0.00
2018-12-22T03:04:29.787Z,0.00
2018-12-22T03:05:29.734Z,0.00
2018-12-22T03:06:29.730Z,0.00
2018-12-22T03:07:29.721Z,0.00
2018-12-22T03:08:29.703Z,0.00
2018-12-22T03:09:29.688Z,0.00
2018-12-22T03:10:29.700Z,0.00
2018-12-22T03:11:29.665Z,0.00
2018-12-22T03:12:29.654Z,0.00
2018-12-22T03:13:29.642Z,0.00
2018-12-22T03:14:29.650Z,0.00
2018-12-22T03:15:29.648Z,0.00
2018-12-22T03:16:29.623Z,0.00
2018-12-22T03:17:29.599Z,0.00
2018-12-22T03:18:29.590Z,0.00
2018-12-22T03:19:29.576Z,0.00
2018-12-22T03:20:29.588Z,0.00
2018-12-22T03:21:29.551Z,0.00
2018-12-22T03:22:29.544Z,0.00
2018-12-22T03:23:29.534Z,0.00
2018-12-22T03:24:29.520Z,0.00
2018-12-22T03:25:29.533Z,0.00
2018-12-22T03:26:29.498Z,0.00
2018-12-22T03:27:29.486Z,0.00
2018-12-22T03:28:29.480Z,0.00
2018-12-22T03:29:29.465Z,0.00
2018-12-22T03:30:29.486Z,0.00
2018-12-22T03:31:29.454Z,0.00
2018-12-22T03:32:29.437Z,0.00
2018-12-22T03:33:29.424Z,0.00
2018-12-22T03:34:29.415Z,0.00
2018-12-22T03:35:29.423Z,0.00
2018-12-22T03:36:29.388Z,0.00
2018-12-22T03:37:29.377Z,0.00
2018-12-22T03:38:29.371Z,0.00
2018-12-22T03:39:29.358Z,0.00
2018-12-22T03:40:29.368Z,0.00
2018-12-22T03:41:29.331Z,0.00
2018-12-22T03:42:29.327Z,0.00
2018-12-22T03:43:29.310Z,0.00
2018-12-22T03:44:29.301Z,0.00
2018-12-22T03:45:29.310Z,0.00
2018-12-22T03:46:29.281Z,0.00
2018-12-22T03:47:29.269Z,0.00
2018-12-22T03:48:29.258Z,0.00
2018-12-22T03:49:29.246Z,0.00
2018-12-22T03:50:29.256Z,0.00
2018-12-22T03:51:29.237Z,0.00
2018-12-22T03:52:29.214Z,0.00
2018-12-22T03:53:29.202Z,0.00
2018-12-22T03:54:29.201Z,0.00
2018-12-22T03:55:29.212Z,0.00
2018-12-22T03:56:29.188Z,0.00
2018-12-22T03:57:29.161Z,0.00
2018-12-22T03:58:29.147Z,0.00
2018-12-22T03:59:29.138Z,0.00
2018-12-22T04:00:29.154Z,0.00
2018-12-22T04:01:29.114Z,0.00
2018-12-22T04:02:29.103Z,0.00
2018-12-22T04:03:29.110Z,0.00
2018-12-22T04:04:29.085Z,0.00
2018-12-22T04:05:29.092Z,0.00
2018-12-22T04:06:29.060Z,0.00
2018-12-22T04:07:29.046Z,0.00
2018-12-22T04:08:29.034Z,0.00
2018-12-22T04:09:29.026Z,0.00
2018-12-22T04:10:29.035Z,0.00
2018-12-22T04:11:29.003Z,0.00
2018-12-22T04:12:28.995Z,0.00
2018-12-22T04:13:28.978Z,0.00
2018-12-22T04:14:28.970Z,0.00
2018-12-22T04:15:28.980Z,0.00
2018-12-22T04:16:28.948Z,0.00
2018-12-22T04:17:28.933Z,0.00
2018-12-22T04:18:28.928Z,0.00
2018-12-22T04:19:28.912Z,0.00
2018-12-22T04:20:28.923Z,0.00
2018-12-22T04:21:28.889Z,0.00
2018-12-22T04:22:28.882Z,0.00
2018-12-22T04:23:28.868Z,0.00
2018-12-22T04:24:28.858Z,0.00
2018-12-22T04:25:28.872Z,0.00
2018-12-22T04:26:28.837Z,0.00
2018-12-22T04:27:28.837Z,0.00
2018-12-22T04:28:28.816Z,0.00
2018-12-22T04:29:33.846Z,0.00
2018-12-22T04:30:29.815Z,0.00
2018-12-22T04:31:28.780Z,0.00
2018-12-22T04:32:28.770Z,0.00
2018-12-22T04:33:28.762Z,0.00
2018-12-22T04:34:28.746Z,0.00
2018-12-22T04:35:28.758Z,0.00
2018-12-22T04:36:28.725Z,0.00
2018-12-22T04:37:28.714Z,0.00
2018-12-22T04:38:28.704Z,0.00
2018-12-22T04:39:28.694Z,0.00
2018-12-22T04:40:28.705Z,0.00
2018-12-22T04:41:28.668Z,0.00
2018-12-22T04:42:28.657Z,0.00
2018-12-22T04:43:28.651Z,0.00
2018-12-22T04:44:28.636Z,0.00
2018-12-22T04:45:28.651Z,0.00
2018-12-22T04:46:28.615Z,0.00
2018-12-22T04:47:28.606Z,0.00
2018-12-22T04:48:28.592Z,0.00
2018-12-22T04:49:28.580Z,0.00
2018-12-22T04:50:28.593Z,0.00
2018-12-22T04:51:28.559Z,0.00
2018-12-22T04:52:28.547Z,0.00
2018-12-22T04:53:28.543Z,0.00
2018-12-22T04:54:28.534Z,0.00
2018-12-22T04:55:28.550Z,0.00
2018-12-22T04:56:28.507Z,0.00
2018-12-22T04:57:28.492Z,0.00
2018-12-22T04:58:28.481Z,0.00
2018-12-22T04:59:28.470Z,0.00
2018-12-22T05:00:28.461Z,0.00
2018-12-22T05:01:28.474Z,0.00
2018-12-22T05:02:28.443Z,0.00
2018-12-22T05:03:28.438Z,0.00
2018-12-22T05:04:28.421Z,0.00
2018-12-22T05:05:28.405Z,0.00
2018-12-22T05:06:28.416Z,0.00
2018-12-22T05:07:28.387Z,0.00
2018-12-22T05:08:28.379Z,0.00
2018-12-22T05:09:28.363Z,0.00
2018-12-22T05:10:28.349Z,0.00
2018-12-22T05:11:28.372Z,0.00
2018-12-22T05:12:28.332Z,0.00
2018-12-22T05:13:28.339Z,0.00
2018-12-22T05:14:28.309Z,0.00
2018-12-22T05:15:28.297Z,0.00
2018-12-22T05:16:28.319Z,0.00
2018-12-22T05:17:28.272Z,0.00
2018-12-22T05:18:28.262Z,0.00
2018-12-22T05:19:28.252Z,0.00
2018-12-22T05:20:28.246Z,0.00
2018-12-22T05:21:28.252Z,0.00
2018-12-22T05:22:28.222Z,0.00
2018-12-22T05:23:28.211Z,0.00
2018-12-22T05:24:28.198Z,0.00
2018-12-22T05:25:28.189Z,0.00
2018-12-22T05:26:28.209Z,0.00
2018-12-22T05:27:28.165Z,0.00
2018-12-22T05:28:28.152Z,0.00
2018-12-22T05:29:28.142Z,0.00
2018-12-22T05:30:28.136Z,0.00
2018-12-22T05:31:28.147Z,0.00
2018-12-22T05:32:28.107Z,0.00
2018-12-22T05:33:28.101Z,0.00
2018-12-22T05:34:28.086Z,0.00
2018-12-22T05:35:28.075Z,0.00
2018-12-22T05:36:28.086Z,0.00
2018-12-22T05:37:28.066Z,0.00
2018-12-22T05:38:28.047Z,0.00
2018-12-22T05:39:28.037Z,0.00
2018-12-22T05:40:28.037Z,0.00
2018-12-22T05:41:28.033Z,0.00
2018-12-22T05:42:27.997Z,0.00
2018-12-22T05:43:27.998Z,0.00
2018-12-22T05:44:27.978Z,0.00
2018-12-22T05:45:27.964Z,0.00
2018-12-22T05:46:27.973Z,0.00
2018-12-22T05:47:27.944Z,0.00
2018-12-22T05:48:27.929Z,0.00
2018-12-22T05:49:27.925Z,0.00
2018-12-22T05:50:27.908Z,0.00
2018-12-22T05:51:27.923Z,0.00
2018-12-22T05:52:27.891Z,0.00
2018-12-22T05:53:27.875Z,0.00
2018-12-22T05:54:27.866Z,0.00
2018-12-22T05:55:27.854Z,0.00
2018-12-22T05:56:29.831Z,0.00
2018-12-22T05:57:27.835Z,0.00
2018-12-22T05:58:27.820Z,0.00
2018-12-22T05:59:27.809Z,0.00
2018-12-22T06:00:27.798Z,0.00
2018-12-22T06:01:27.813Z,0.00
2018-12-22T06:02:27.778Z,0.00
2018-12-22T06:03:27.764Z,0.00
2018-12-22T06:04:27.754Z,0.00
2018-12-22T06:05:27.747Z,0.00
2018-12-22T06:06:27.756Z,0.00
2018-12-22T06:07:27.723Z,0.00
2018-12-22T06:08:27.711Z,0.00
2018-12-22T06:09:27.699Z,0.00
2018-12-22T06:10:27.692Z,0.00
2018-12-22T06:11:27.704Z,0.00
2018-12-22T06:12:27.674Z,0.00
2018-12-22T06:13:27.655Z,0.00
2018-12-22T06:14:27.647Z,0.00
2018-12-22T06:15:27.633Z,0.00
2018-12-22T06:16:27.645Z,0.00
2018-12-22T06:17:27.685Z,0.00
2018-12-22T06:18:27.602Z,0.00
2018-12-22T06:19:27.590Z,0.00
2018-12-22T06:20:27.578Z,0.00
2018-12-22T06:21:36.438Z,0.00
2018-12-22T06:22:27.559Z,0.00
2018-12-22T06:23:27.551Z,0.00
2018-12-22T06:24:27.534Z,0.00
2018-12-22T06:25:27.522Z,0.00
2018-12-22T06:26:27.556Z,0.00
2018-12-22T06:27:27.501Z,0.00
2018-12-22T06:28:27.495Z,0.00
2018-12-22T06:29:27.479Z,0.00
2018-12-22T06:30:27.470Z,0.00
2018-12-22T06:31:37.151Z,0.00
2018-12-22T06:32:36.136Z,0.00
2018-12-22T06:33:27.719Z,0.00
2018-12-22T06:34:27.424Z,0.00
2018-12-22T06:35:27.413Z,0.00
2018-12-22T06:36:27.425Z,0.00
2018-12-22T06:37:27.391Z,0.00
2018-12-22T06:38:27.384Z,0.00
2018-12-22T06:39:27.369Z,0.00
2018-12-22T06:40:27.362Z,0.00
2018-12-22T06:41:27.368Z,0.00
2018-12-22T06:42:27.337Z,0.00
2018-12-22T06:43:27.324Z,0.00
2018-12-22T06:44:27.314Z,0.00
2018-12-22T06:45:27.306Z,0.00
2018-12-22T06:46:27.316Z,0.00
2018-12-22T06:47:27.282Z,0.00
2018-12-22T06:48:27.270Z,0.00
2018-12-22T06:49:27.263Z,0.00
2018-12-22T06:50:27.248Z,0.00
2018-12-22T06:51:27.264Z,0.00
2018-12-22T06:52:36.739Z,0.00
2018-12-22T06:53:27.261Z,0.00
2018-12-22T06:54:27.206Z,0.00
2018-12-22T06:55:27.191Z,0.00
2018-12-22T06:56:27.216Z,0.00
2018-12-22T06:57:27.173Z,0.00
2018-12-22T06:58:27.166Z,0.00
2018-12-22T06:59:27.151Z,0.00
2018-12-22T07:00:27.138Z,0.00
2018-12-22T07:01:27.128Z,0.00
2018-12-22T07:02:27.138Z,0.00
2018-12-22T07:03:27.111Z,0.00
2018-12-22T07:04:27.096Z,0.00
2018-12-22T07:05:36.808Z,0.00
2018-12-22T07:06:27.071Z,0.00
2018-12-22T07:07:27.084Z,0.00
2018-12-22T07:08:27.049Z,0.00
2018-12-22T07:09:27.039Z,0.00
2018-12-22T07:10:27.029Z,0.00
2018-12-22T07:11:27.019Z,0.00
2018-12-22T07:12:27.029Z,0.00
2018-12-22T07:13:27.054Z,0.00
2018-12-22T07:14:26.984Z,0.00
2018-12-22T07:15:35.329Z,0.00
2018-12-22T07:16:35.366Z,0.00
2018-12-22T07:17:26.976Z,0.00
2018-12-22T07:18:26.943Z,0.00
2018-12-22T07:19:26.934Z,0.00
2018-12-22T07:20:26.917Z,0.00
2018-12-22T07:21:26.908Z,0.00
2018-12-22T07:22:26.922Z,0.00
2018-12-22T07:23:26.884Z,0.00
2018-12-22T07:24:26.873Z,0.00
2018-12-22T07:25:26.863Z,0.00
2018-12-22T07:26:26.852Z,0.00
2018-12-22T07:27:26.866Z,0.00
2018-12-22T07:28:26.829Z,0.00
2018-12-22T07:29:26.819Z,0.00
2018-12-22T07:30:26.813Z,0.00
2018-12-22T07:31:35.106Z,0.00
2018-12-22T07:32:26.808Z,0.00
2018-12-22T07:33:26.774Z,0.00
2018-12-22T07:34:26.764Z,0.00
2018-12-22T07:35:35.193Z,0.00
2018-12-22T07:36:26.755Z,0.00
2018-12-22T07:37:26.753Z,0.00
2018-12-22T07:38:26.719Z,0.00
2018-12-22T07:39:26.721Z,0.00
2018-12-22T07:40:26.804Z,0.00
2018-12-22T07:41:26.688Z,0.00
2018-12-22T07:42:26.702Z,0.00
2018-12-22T07:43:26.664Z,0.00
2018-12-22T07:44:26.653Z,0.00
2018-12-22T07:45:26.645Z,0.00
2018-12-22T07:46:26.632Z,0.00
2018-12-22T07:47:26.641Z,0.00
2018-12-22T07:48:35.065Z,0.00
2018-12-22T07:49:26.612Z,0.00
2018-12-22T07:50:26.589Z,0.00
2018-12-22T07:51:35.095Z,0.00
2018-12-22T07:52:26.587Z,0.00
2018-12-22T07:53:26.552Z,0.00
2018-12-22T07:54:26.543Z,0.00
2018-12-22T07:55:26.533Z,0.00
2018-12-22T07:56:26.528Z,0.00
2018-12-22T07:57:26.531Z,0.00
2018-12-22T07:58:26.507Z,0.00
2018-12-22T07:59:26.487Z,0.00
2018-12-22T08:00:34.622Z,0.00
2018-12-22T08:01:26.470Z,0.00
2018-12-22T08:02:26.480Z,0.00
2018-12-22T08:03:26.459Z,0.00
2018-12-22T08:04:26.583Z,5.62
2018-12-22T08:05:26.424Z,0.00
2018-12-22T08:06:26.425Z,0.00
2018-12-22T08:07:26.421Z,0.00
2018-12-22T08:08:26.391Z,0.00
2018-12-22T08:09:35.465Z,0.00
2018-12-22T08:10:26.367Z,0.00
2018-12-22T08:11:35.015Z,0.00
2018-12-22T08:12:26.399Z,0.00
2018-12-22T08:13:26.333Z,5.62
2018-12-22T08:14:26.327Z,5.62
2018-12-22T08:15:26.313Z,0.00
2018-12-22T08:16:26.368Z,0.00
2018-12-22T08:17:26.362Z,0.00
2018-12-22T08:18:37.623Z,0.00
2018-12-22T08:19:26.267Z,5.62
2018-12-22T08:20:35.834Z,5.62
2018-12-22T08:21:26.380Z,5.62
2018-12-22T08:22:26.498Z,5.62
2018-12-22T08:23:26.224Z,5.62
2018-12-22T08:24:26.213Z,5.62
2018-12-22T08:25:26.201Z,5.62
2018-12-22T08:27:51.922Z,0.00
2018-12-22T08:28:51.886Z,0.00
2018-12-22T08:29:51.879Z,0.00
2018-12-22T08:30:51.863Z,5.62
2018-12-22T08:31:51.856Z,5.62
2018-12-22T08:32:51.864Z,5.62
2018-12-22T08:33:51.832Z,5.62
2018-12-22T08:34:51.819Z,5.62
2018-12-22T08:35:51.809Z,5.62
2018-12-22T08:36:51.797Z,11.25
2018-12-22T08:37:51.811Z,11.25
2018-12-22T08:38:51.779Z,11.25
2018-12-22T08:39:51.763Z,11.25
2018-12-22T08:40:51.753Z,11.25
2018-12-22T08:41:51.741Z,11.25
2018-12-22T08:42:51.752Z,22.50
2018-12-22T08:43:51.719Z,22.50
2018-12-22T08:44:51.709Z,11.25
2018-12-22T08:46:00.032Z,11.25
2018-12-22T08:46:51.687Z,11.25
2018-12-22T08:47:51.709Z,5.62
2018-12-22T08:48:51.663Z,5.62
2018-12-22T08:49:51.653Z,5.62
2018-12-22T08:50:51.647Z,11.25
2018-12-22T08:51:51.633Z,11.25
2018-12-22T08:52:51.647Z,5.62
2018-12-22T08:53:51.607Z,11.25
2018-12-22T08:54:51.596Z,11.25
2018-12-22T08:55:51.589Z,11.25
2018-12-22T08:56:51.577Z,11.25
2018-12-22T08:57:51.588Z,5.62
2018-12-22T08:59:43.145Z,11.25
2018-12-22T09:00:43.203Z,5.62
2018-12-22T09:01:44.115Z,5.62
2018-12-22T09:02:43.123Z,5.62
2018-12-22T09:03:43.090Z,5.62
2018-12-22T09:04:43.078Z,5.62
2018-12-22T09:05:43.072Z,5.62
2018-12-22T09:06:43.062Z,5.62
2018-12-22T09:07:43.079Z,11.25
2018-12-22T09:08:43.037Z,11.25
2018-12-22T09:09:52.313Z,5.62
2018-12-22T09:10:43.011Z,16.88
2018-12-22T09:11:43.003Z,22.50
2018-12-22T09:12:43.014Z,16.88
2018-12-22T09:13:42.979Z,16.88
2018-12-22T09:14:42.967Z,16.88
2018-12-22T09:15:42.957Z,16.88
2018-12-22T09:16:42.947Z,11.25
2018-12-22T09:17:51.273Z,11.25
2018-12-22T09:18:42.923Z,11.25
2018-12-22T09:19:42.967Z,11.25
2018-12-22T09:20:42.904Z,16.88
2018-12-22T09:21:42.892Z,16.88
2018-12-22T09:22:42.929Z,11.25
2018-12-22T09:23:42.871Z,5.62
2018-12-22T09:24:42.946Z,5.62
2018-12-22T09:25:42.848Z,11.25
2018-12-22T09:26:42.839Z,11.25
2018-12-22T09:27:42.847Z,11.25
2018-12-22T09:28:42.838Z,16.88
2018-12-22T09:30:12.175Z,22.50
2018-12-22T09:31:20.602Z,22.50
2018-12-22T09:32:12.143Z,16.88
2018-12-22T09:33:12.156Z,11.25
2018-12-22T09:34:13.457Z,22.50
2018-12-22T09:35:12.111Z,45.00
2018-12-22T09:36:20.403Z,45.00
2018-12-22T09:37:12.089Z,45.00
2018-12-22T09:38:12.104Z,45.00
2018-12-22T09:39:12.067Z,33.75
2018-12-22T09:40:12.059Z,28.12
2018-12-22T09:41:12.051Z,22.50
2018-12-22T09:42:12.038Z,22.50
2018-12-22T09:43:12.042Z,16.88
2018-12-22T09:44:12.010Z,11.25
2018-12-22T09:45:12.002Z,16.88
2018-12-22T09:46:11.988Z,16.88
2018-12-22T09:47:11.979Z,11.25
2018-12-22T09:48:21.346Z,11.25
2018-12-22T09:49:11.958Z,11.25
2018-12-22T09:50:21.544Z,11.25
2018-12-22T09:51:11.934Z,11.25
2018-12-22T09:52:11.925Z,11.25
2018-12-22T09:53:11.934Z,5.62
2018-12-22T09:54:12.265Z,5.62
2018-12-22T09:55:11.890Z,5.62
2018-12-22T09:56:11.876Z,5.62
2018-12-22T09:57:21.385Z,5.62
2018-12-22T09:58:11.877Z,11.25
2018-12-22T09:59:11.846Z,5.62
2018-12-22T10:00:11.832Z,5.62
2018-12-22T10:01:11.822Z,0.00
2018-12-22T10:02:11.813Z,5.62
2018-12-22T10:03:11.821Z,5.62
2018-12-22T10:04:11.793Z,5.62
2018-12-22T10:05:11.781Z,5.62
2018-12-22T10:06:11.867Z,5.62
2018-12-22T10:07:11.754Z,11.25
2018-12-22T10:08:11.766Z,11.25
2018-12-22T10:09:11.733Z,11.25
2018-12-22T10:10:11.721Z,11.25
2018-12-22T10:11:11.709Z,16.88
2018-12-22T10:12:11.698Z,16.88
2018-12-22T10:13:11.710Z,16.88
2018-12-22T10:14:11.678Z,16.88
2018-12-22T10:15:11.664Z,11.25
2018-12-22T10:16:11.654Z,11.25
2018-12-22T10:17:11.645Z,11.25
2018-12-22T10:18:11.654Z,16.88
2018-12-22T10:19:11.622Z,16.88
2018-12-22T10:20:11.610Z,11.25
2018-12-22T10:21:11.606Z,11.25
2018-12-22T10:22:11.587Z,11.25
2018-12-22T10:23:11.608Z,5.62
2018-12-22T10:24:11.568Z,5.62
2018-12-22T10:25:11.556Z,5.62
2018-12-22T10:26:11.549Z,5.62
2018-12-22T10:27:11.530Z,5.62
2018-12-22T10:28:11.520Z,16.88
2018-12-22T10:29:11.530Z,22.50
2018-12-22T10:30:21.419Z,22.50
2018-12-22T10:31:17.949Z,22.50
2018-12-22T10:32:11.478Z,16.88
2018-12-22T10:33:11.465Z,11.25
2018-12-22T10:34:11.481Z,11.25
2018-12-22T10:35:11.441Z,11.25
2018-12-22T10:36:11.430Z,11.25
2018-12-22T10:37:11.419Z,11.25
2018-12-22T10:38:19.767Z,16.88
2018-12-22T10:39:11.401Z,16.88
2018-12-22T10:40:11.387Z,22.50
2018-12-22T10:41:11.376Z,33.75
2018-12-22T10:42:11.368Z,50.62
2018-12-22T10:43:11.351Z,67.50
2018-12-22T10:44:11.367Z,73.12
2018-12-22T10:45:11.332Z,61.88
2018-12-22T10:46:11.319Z,61.88
2018-12-22T10:48:15.065Z,28.12
2018-12-22T10:49:15.068Z,22.50
2018-12-22T10:50:15.034Z,22.50
2018-12-22T10:51:15.023Z,22.50
2018-12-22T10:52:15.018Z,22.50
2018-12-22T10:53:15.001Z,22.50
2018-12-22T10:54:15.013Z,28.12
2018-12-22T10:55:14.978Z,22.50
2018-12-22T10:56:14.966Z,16.88
2018-12-22T10:57:14.959Z,16.88
2018-12-22T10:58:14.952Z,22.50
2018-12-22T10:59:24.396Z,22.50
2018-12-22T11:00:14.927Z,16.88
2018-12-22T11:01:14.911Z,16.88
2018-12-22T11:02:23.853Z,22.50
2018-12-22T11:03:14.953Z,22.50
2018-12-22T11:04:14.906Z,22.50
2018-12-22T11:05:14.871Z,16.88
2018-12-22T11:06:14.857Z,22.50
2018-12-22T11:07:14.846Z,22.50
2018-12-22T11:08:14.835Z,28.12
2018-12-22T11:09:14.858Z,28.12
2018-12-22T11:10:14.812Z,33.75
2018-12-22T11:11:23.506Z,39.38
2018-12-22T11:12:14.789Z,33.75
2018-12-22T11:13:24.539Z,39.38
2018-12-22T11:14:14.793Z,33.75
2018-12-22T11:15:14.755Z,45.00
2018-12-22T11:16:14.753Z,61.88
2018-12-22T11:17:14.733Z,61.88
2018-12-22T11:18:14.730Z,67.50
2018-12-22T11:19:14.738Z,67.50
2018-12-22T11:20:14.699Z,73.12
2018-12-22T11:21:14.688Z,67.50
2018-12-22T11:22:14.678Z,61.88
2018-12-22T11:23:20.378Z,56.25
2018-12-22T11:24:14.678Z,67.50
2018-12-22T11:25:14.645Z,61.88
2018-12-22T11:26:14.637Z,45.00
2018-12-22T11:27:14.621Z,33.75
2018-12-22T11:28:14.611Z,33.75
2018-12-22T11:29:24.183Z,28.12
2018-12-22T11:30:14.589Z,28.12
2018-12-22T11:31:14.578Z,28.12
2018-12-22T11:32:14.571Z,33.75
2018-12-22T11:33:14.575Z,33.75
2018-12-22T11:34:14.565Z,28.12
2018-12-22T11:35:14.535Z,28.12
2018-12-22T11:36:14.664Z,28.12
2018-12-22T11:37:24.285Z,33.75
2018-12-22T11:38:14.628Z,39.38
2018-12-22T11:39:14.512Z,45.00
2018-12-22T11:40:14.481Z,61.88
2018-12-22T11:41:14.464Z,61.88
2018-12-22T11:42:14.454Z,61.88
2018-12-22T11:43:14.442Z,50.62
2018-12-22T11:44:14.456Z,39.38
2018-12-22T11:45:24.068Z,45.00
2018-12-22T11:46:14.410Z,39.38
2018-12-22T11:47:14.401Z,33.75
2018-12-22T11:48:14.387Z,28.12
2018-12-22T11:49:14.401Z,28.12
2018-12-22T11:50:14.363Z,28.12
2018-12-22T11:51:14.358Z,28.12
2018-12-22T11:52:14.362Z,28.12
2018-12-22T11:53:14.336Z,28.12
2018-12-22T11:54:14.368Z,28.12
2018-12-22T11:55:14.308Z,22.50
2018-12-22T11:56:14.368Z,22.50
2018-12-22T11:57:14.284Z,22.50
2018-12-22T11:59:05.317Z,33.75
2018-12-22T12:00:05.326Z,39.38
2018-12-22T12:01:05.293Z,33.75
2018-12-22T12:02:09.563Z,33.75
2018-12-22T12:03:05.295Z,45.00
2018-12-22T12:04:05.261Z,45.00
2018-12-22T12:05:05.274Z,50.62
2018-12-22T12:06:05.238Z,56.25
2018-12-22T12:07:13.633Z,56.25
2018-12-22T12:08:05.214Z,50.62
2018-12-22T12:09:05.202Z,67.50
2018-12-22T12:10:05.219Z,67.50
2018-12-22T12:11:05.184Z,67.50
2018-12-22T12:12:05.171Z,61.88
2018-12-22T12:13:05.158Z,56.25
2018-12-22T12:14:05.147Z,61.88
2018-12-22T12:15:05.158Z,61.88
2018-12-22T12:16:05.125Z,61.88
2018-12-22T12:17:05.116Z,61.88
2018-12-22T12:18:05.103Z,39.38
2018-12-22T12:19:05.092Z,28.12
2018-12-22T12:20:05.106Z,28.12
2018-12-22T12:21:05.071Z,22.50
2018-12-22T12:22:05.059Z,16.88
2018-12-22T12:23:05.049Z,16.88
2018-12-22T12:24:05.072Z,16.88
2018-12-22T12:25:05.052Z,22.50
2018-12-22T12:26:13.550Z,22.50
2018-12-22T12:27:05.056Z,28.12
2018-12-22T12:28:04.992Z,33.75
2018-12-22T12:29:04.984Z,22.50
2018-12-22T12:30:05.008Z,16.88
2018-12-22T12:31:04.961Z,11.25
2018-12-22T12:32:04.953Z,11.25
2018-12-22T12:33:04.940Z,11.25
2018-12-22T12:34:05.030Z,16.88
2018-12-22T12:35:04.916Z,16.88
2018-12-22T12:36:04.928Z,16.88
2018-12-22T12:37:04.893Z,16.88
2018-12-22T12:38:14.454Z,16.88
2018-12-22T12:39:04.875Z,16.88
2018-12-22T12:40:13.187Z,16.88
2018-12-22T12:41:04.859Z,16.88
2018-12-22T12:42:04.843Z,16.88
2018-12-22T12:43:04.831Z,16.88
2018-12-22T12:44:04.830Z,16.88
2018-12-22T12:45:04.808Z,16.88
2018-12-22T12:46:04.820Z,22.50
2018-12-22T12:47:04.783Z,28.12
2018-12-22T12:48:04.772Z,22.50
2018-12-22T12:49:04.764Z,28.12
2018-12-22T12:50:04.757Z,28.12
2018-12-22T12:51:04.766Z,33.75
2018-12-22T12:52:04.728Z,33.75
2018-12-22T12:53:09.643Z,28.12
2018-12-22T12:54:04.717Z,22.50
2018-12-22T12:55:04.699Z,22.50
2018-12-22T12:56:04.706Z,16.88
2018-12-22T12:57:04.674Z,16.88
2018-12-22T12:58:04.663Z,16.88
2018-12-22T12:59:04.656Z,16.88
2018-12-22T13:00:04.646Z,11.25
2018-12-22T13:01:04.652Z,11.25
2018-12-22T13:02:04.620Z,11.25
2018-12-22T13:03:04.607Z,11.25
2018-12-22T13:04:04.597Z,11.25
2018-12-22T13:05:04.586Z,11.25
2018-12-22T13:06:04.597Z,11.25
2018-12-22T13:07:04.564Z,11.25
2018-12-22T13:08:04.554Z,11.25
2018-12-22T13:09:04.546Z,16.88
2018-12-22T13:10:04.536Z,16.88
2018-12-22T13:11:04.541Z,16.88
2018-12-22T13:12:04.513Z,22.50
2018-12-22T13:13:04.500Z,28.12
2018-12-22T13:14:04.487Z,45.00
2018-12-22T13:15:04.477Z,61.88